createdAt,value
2018-06-29T00:00:41.565Z,4.53
2018-06-29T00:03:10.440Z,3.00
2018-06-29T00:05:39.471Z,3.30
2018-06-29T00:08:08.356Z,4.17
2018-06-29T00:10:37.220Z,2.93
2018-06-29T00:13:06.094Z,4.10
2018-06-29T00:15:35.217Z,2.70
2018-06-29T00:18:04.089Z,4.47
2018-06-29T00:20:33.652Z,3.40
2018-06-29T00:23:02.550Z,3.23
2018-06-29T00:25:31.403Z,2.83
2018-06-29T00:28:00.272Z,3.40
2018-06-29T00:30:29.147Z,3.33
2018-06-29T00:32:58.036Z,3.17
2018-06-29T00:35:26.895Z,4.47
2018-06-29T00:37:55.756Z,4.47
2018-06-29T00:40:24.621Z,4.57
2018-06-29T00:42:53.481Z,2.60
2018-06-29T00:45:22.370Z,4.67
2018-06-29T00:47:51.272Z,2.53
2018-06-29T00:50:20.119Z,2.80
2018-06-29T00:52:48.976Z,2.20
2018-06-29T00:55:17.852Z,4.53
2018-06-29T00:57:46.769Z,3.47
2018-06-29T01:00:15.645Z,4.80
2018-06-29T01:02:44.531Z,4.23
2018-06-29T01:05:13.392Z,2.97
2018-06-29T01:07:42.305Z,8.10
2018-06-29T01:10:11.152Z,3.97
2018-06-29T01:12:40.033Z,4.07
2018-06-29T01:15:08.908Z,4.67
2018-06-29T01:17:37.779Z,5.10
2018-06-29T01:20:06.641Z,5.10
2018-06-29T01:22:35.555Z,5.50
2018-06-29T01:25:04.379Z,2.77
2018-06-29T01:27:33.240Z,2.30
2018-06-29T01:30:02.114Z,3.57
2018-06-29T01:32:31.167Z,2.77
2018-06-29T01:35:00.045Z,4.43
2018-06-29T01:37:28.898Z,3.13
2018-06-29T01:39:57.791Z,4.87
2018-06-29T01:42:26.650Z,2.43
2018-06-29T01:44:56.165Z,4.27
2018-06-29T01:47:25.020Z,3.20
2018-06-29T01:49:53.893Z,2.50
2018-06-29T01:52:22.740Z,3.00
2018-06-29T01:54:51.601Z,3.77
2018-06-29T01:57:20.648Z,7.10
2018-06-29T01:59:49.615Z,2.77
2018-06-29T02:02:18.476Z,3.57
2018-06-29T02:04:47.336Z,4.50
2018-06-29T02:07:16.210Z,3.70
2018-06-29T02:09:45.108Z,2.73
2018-06-29T02:12:14.572Z,3.43
2018-06-29T02:14:43.469Z,2.63
2018-06-29T02:17:12.368Z,5.80
2018-06-29T02:19:41.344Z,2.70
2018-06-29T02:22:10.285Z,3.83
2018-06-29T02:24:39.165Z,3.77
2018-06-29T02:27:08.125Z,4.60
2018-06-29T02:29:37.000Z,4.33
2018-06-29T02:32:05.887Z,4.47
2018-06-29T02:34:34.809Z,3.70
2018-06-29T02:37:03.680Z,4.50
2018-06-29T02:39:32.569Z,5.17
2018-06-29T02:42:01.693Z,4.60
2018-06-29T02:44:30.572Z,7.17
2018-06-29T02:46:59.980Z,10.20
2018-06-29T02:49:28.855Z,3.43
2018-06-29T02:51:57.728Z,4.13
2018-06-29T02:54:26.622Z,3.63
2018-06-29T02:56:55.488Z,2.83
2018-06-29T02:59:24.367Z,3.37
2018-06-29T03:01:53.240Z,3.60
2018-06-29T03:04:22.124Z,3.90
2018-06-29T03:06:51.002Z,3.07
2018-06-29T03:09:19.871Z,4.20
2018-06-29T03:11:49.024Z,4.17
2018-06-29T03:14:17.850Z,3.97
2018-06-29T03:16:46.739Z,5.43
2018-06-29T03:19:15.603Z,3.10
2018-06-29T03:21:44.491Z,3.27
2018-06-29T03:24:13.372Z,4.87
2018-06-29T03:26:42.249Z,4.70
2018-06-29T03:29:11.135Z,4.60
2018-06-29T03:31:40.005Z,2.93
2018-06-29T03:34:08.908Z,3.30
2018-06-29T03:36:37.929Z,6.03
2018-06-29T03:39:07.881Z,3.43
2018-06-29T03:41:36.764Z,3.60
2018-06-29T03:44:05.671Z,5.23
2018-06-29T03:46:34.722Z,8.70
2018-06-29T03:49:03.593Z,5.63
2018-06-29T03:51:32.474Z,3.40
2018-06-29T03:54:01.333Z,5.00
2018-06-29T03:56:30.213Z,5.07
2018-06-29T03:58:59.112Z,5.57
2018-06-29T04:01:28.005Z,5.47
2018-06-29T04:03:57.676Z,4.53
2018-06-29T04:06:26.548Z,8.27
2018-06-29T04:08:55.423Z,4.57
2018-06-29T04:11:24.376Z,4.40
2018-06-29T04:13:53.256Z,5.57
2018-06-29T04:16:22.137Z,4.97
2018-06-29T04:18:51.040Z,3.70
2018-06-29T04:21:19.916Z,7.90
2018-06-29T04:23:49.451Z,6.60
2018-06-29T04:26:18.328Z,3.90
2018-06-29T04:28:47.197Z,8.00
2018-06-29T04:31:16.082Z,5.37
2018-06-29T04:33:45.001Z,4.93
2018-06-29T04:36:14.009Z,4.33
2018-06-29T04:38:42.884Z,4.83
2018-06-29T04:41:11.772Z,6.13
2018-06-29T04:43:40.656Z,5.10
2018-06-29T04:46:09.533Z,5.77
2018-06-29T04:48:38.536Z,5.43
2018-06-29T04:51:07.417Z,7.87
2018-06-29T04:53:36.286Z,6.90
2018-06-29T04:56:05.156Z,5.07
2018-06-29T04:58:34.176Z,7.20
2018-06-29T05:01:03.324Z,6.53
2018-06-29T05:03:32.120Z,8.00
2018-06-29T05:06:00.998Z,13.33
2018-06-29T05:08:29.864Z,5.93
2018-06-29T05:10:58.752Z,8.57
2018-06-29T05:13:27.680Z,7.60
2018-06-29T05:15:56.541Z,7.63
2018-06-29T05:18:25.403Z,7.87
2018-06-29T05:20:54.276Z,11.93
2018-06-29T05:23:23.140Z,12.53
2018-06-29T05:25:52.036Z,7.20
2018-06-29T05:28:20.934Z,6.37
2018-06-29T05:30:49.795Z,8.20
2018-06-29T05:33:18.921Z,10.07
2018-06-29T05:35:48.519Z,8.23
2018-06-29T05:38:17.416Z,10.73
2018-06-29T05:49:43.954Z,6.77
2018-06-29T05:52:13.913Z,5.77
2018-06-29T05:54:43.136Z,9.33
2018-06-29T05:57:12.011Z,7.93
2018-06-29T06:02:44.500Z,6.33
2018-06-29T06:14:23.723Z,9.57
2018-06-29T06:17:02.091Z,6.57
2018-06-29T06:22:26.668Z,7.20
2018-06-29T06:24:55.540Z,6.37
2018-06-29T06:30:18.198Z,8.17
2018-06-29T15:32:39.174Z,3.43
2018-06-29T15:44:09.846Z,2.90
2018-06-29T15:46:38.661Z,4.90
2018-06-29T15:49:09.194Z,2.90
2018-06-29T15:51:38.112Z,3.47
2018-06-29T15:54:08.853Z,2.97
2018-06-29T15:56:37.915Z,4.70
2018-06-29T15:59:10.703Z,4.00
2018-06-29T16:01:40.063Z,3.97
2018-06-29T16:04:09.274Z,3.27
2018-06-29T16:06:39.226Z,2.80
2018-06-29T16:09:09.907Z,2.20
2018-06-29T16:11:57.902Z,2.00
2018-06-29T16:14:27.107Z,3.43
2018-06-29T16:16:59.939Z,3.87
2018-06-29T16:19:29.001Z,3.53
2018-06-29T16:21:58.275Z,3.17
2018-06-29T16:24:27.743Z,5.40
2018-06-29T16:26:56.754Z,3.23
2018-06-29T16:29:25.806Z,4.83
2018-06-29T16:34:57.946Z,2.07
2018-06-29T16:37:27.837Z,2.80
2018-06-29T16:39:56.840Z,4.00
2018-06-29T16:42:25.855Z,3.20
2018-06-29T16:44:56.681Z,4.07
2018-06-29T16:50:29.299Z,3.30
2018-06-29T16:56:14.682Z,3.53
2018-06-29T16:58:49.023Z,2.97
2018-06-29T17:01:17.866Z,2.00
2018-06-29T17:03:46.861Z,2.80
2018-06-29T17:06:16.405Z,2.70
2018-06-29T17:08:45.341Z,5.17
2018-06-29T17:11:14.365Z,2.77
2018-06-29T17:20:00.415Z,3.10
2018-06-29T17:22:29.643Z,2.33
2018-06-29T17:24:59.280Z,3.13
2018-06-29T17:27:28.101Z,3.50
2018-06-29T17:29:57.378Z,5.43
2018-06-29T17:32:26.367Z,2.93
2018-06-29T17:34:55.345Z,4.10
2018-06-29T17:37:24.645Z,3.93
2018-06-29T17:39:53.789Z,4.50
2018-06-29T17:42:22.818Z,3.17
2018-06-29T17:44:51.791Z,3.10
2018-06-29T17:47:20.816Z,3.70
2018-06-29T17:49:55.276Z,4.40
2018-06-29T17:55:05.075Z,2.93
2018-06-29T17:57:34.033Z,5.03
2018-06-29T18:00:02.959Z,4.83
2018-06-29T18:02:32.633Z,5.00
2018-06-29T18:05:01.528Z,3.00
2018-06-29T18:07:30.421Z,4.77
2018-06-29T18:10:00.317Z,2.90
2018-06-29T18:12:29.236Z,4.27
2018-06-29T18:14:58.134Z,4.30
2018-06-29T18:17:27.018Z,2.47
2018-06-29T18:19:55.904Z,4.03
2018-06-29T18:22:24.812Z,5.57
2018-06-29T18:24:53.992Z,3.87
2018-06-29T18:27:22.845Z,4.77
2018-06-29T18:29:51.749Z,7.80
2018-06-29T18:32:20.652Z,6.83
2018-06-29T18:34:49.653Z,6.77
2018-06-29T18:37:31.679Z,3.93
2018-06-29T18:40:00.450Z,4.87
2018-06-29T18:42:29.332Z,4.17
2018-06-29T18:45:21.024Z,5.30
2018-06-29T18:47:50.205Z,6.70
2018-06-29T18:50:24.700Z,8.03
2018-06-29T18:52:53.612Z,8.10
2018-06-29T18:55:39.109Z,7.03
2018-06-29T19:12:50.948Z,7.70
2018-06-29T19:15:19.884Z,7.47
2018-06-29T19:17:48.825Z,8.23
2018-06-29T19:20:17.797Z,7.27
2018-06-29T19:22:46.742Z,8.37
2018-06-29T19:25:15.688Z,8.23
2018-06-29T19:27:44.603Z,7.97
2018-06-29T19:30:14.017Z,7.47
2018-06-29T19:32:42.941Z,9.33
2018-06-29T19:35:11.858Z,5.30
2018-06-29T19:37:40.818Z,6.60
2018-06-29T19:40:09.731Z,4.63
2018-06-29T19:42:38.733Z,7.83
2018-06-29T19:45:07.737Z,6.33
2018-06-29T19:47:36.669Z,6.77
2018-06-29T19:50:05.981Z,6.87
2018-06-29T19:52:34.924Z,4.73
2018-06-29T19:55:03.906Z,7.17
2018-06-29T19:57:32.815Z,4.70
2018-06-29T20:00:01.757Z,5.17
2018-06-29T20:02:30.675Z,6.57
2018-06-29T20:04:59.629Z,6.87
2018-06-29T20:07:29.145Z,6.90
2018-06-29T20:09:58.088Z,6.00
2018-06-29T20:12:27.046Z,4.07
2018-06-29T20:14:55.998Z,6.93
2018-06-29T20:17:24.974Z,7.83
2018-06-29T20:19:53.915Z,8.57
2018-06-29T20:22:22.842Z,4.13
2018-06-29T20:24:51.798Z,6.63
2018-06-29T20:27:20.732Z,4.77
2018-06-29T20:29:49.683Z,6.40
2018-06-29T20:32:18.684Z,9.60
2018-06-29T20:34:47.637Z,5.43
2018-06-29T20:37:16.659Z,5.03
2018-06-29T20:39:45.604Z,4.77
2018-06-29T20:42:15.510Z,4.57
2018-06-29T20:44:44.441Z,4.63
2018-06-29T20:47:13.987Z,5.30
2018-06-29T20:49:42.886Z,6.63
2018-06-29T20:52:11.906Z,4.67
2018-06-29T20:54:40.866Z,4.77
2018-06-29T20:57:09.824Z,7.10
2018-06-29T20:59:38.765Z,8.10
2018-06-29T21:02:07.727Z,6.93
2018-06-29T21:04:36.718Z,10.33
2018-06-29T21:07:05.661Z,5.00
2018-06-29T21:09:34.642Z,7.60
2018-06-29T21:12:03.628Z,6.90
2018-06-29T21:14:32.750Z,7.30
2018-06-29T21:17:01.706Z,5.80
2018-06-29T21:19:30.634Z,7.53
2018-06-29T21:21:59.618Z,7.47
2018-06-29T21:24:28.552Z,5.33
2018-06-29T21:26:57.494Z,7.73
2018-06-29T21:29:26.458Z,7.17
2018-06-29T21:31:55.141Z,6.10
2018-06-29T21:34:23.998Z,5.57
2018-06-29T21:36:52.893Z,5.00
2018-06-29T21:39:22.151Z,5.10
2018-06-29T21:41:51.041Z,7.57
2018-06-29T21:44:19.940Z,7.90
2018-06-29T21:46:48.851Z,8.07
2018-06-29T21:49:17.751Z,7.43
2018-06-29T21:51:46.644Z,8.50
2018-06-29T21:54:15.599Z,10.83
2018-06-29T21:56:44.427Z,8.30
2018-06-29T21:59:13.373Z,9.13
2018-06-29T22:01:42.248Z,8.93
2018-06-29T22:04:11.144Z,9.03
2018-06-29T22:06:40.050Z,12.87
2018-06-29T22:09:09.647Z,8.60
2018-06-29T22:11:38.608Z,9.63
2018-06-29T22:14:08.235Z,8.43
2018-06-29T22:16:37.116Z,8.83
2018-06-29T22:19:06.136Z,12.40
2018-06-29T22:21:35.028Z,8.33
2018-06-29T22:24:04.656Z,7.87
2018-06-29T22:26:33.605Z,10.03
2018-06-29T22:29:02.476Z,11.03
2018-06-29T22:31:31.147Z,7.57
2018-06-29T22:34:00.054Z,9.10
2018-06-29T22:36:28.708Z,11.20
2018-06-29T22:38:57.488Z,8.37
2018-06-29T22:41:26.368Z,10.77
2018-06-29T22:43:55.266Z,11.83
2018-06-29T22:46:24.244Z,8.20
2018-06-29T22:48:53.152Z,8.13
2018-06-29T22:51:22.082Z,11.10
2018-06-29T22:53:50.984Z,9.93
2018-06-29T22:56:19.896Z,10.70
2018-06-29T22:58:48.804Z,9.10
2018-06-29T23:01:17.733Z,9.13
2018-06-29T23:03:51.923Z,7.47
2018-06-29T23:06:20.863Z,9.13
2018-06-29T23:08:49.513Z,7.60
2018-06-29T23:11:18.657Z,10.17
2018-06-29T23:13:47.564Z,9.90
2018-06-29T23:16:16.868Z,7.53
2018-06-29T23:18:45.795Z,13.40
2018-06-29T23:21:14.720Z,11.37
2018-06-29T23:23:43.927Z,7.67
2018-06-29T23:26:12.815Z,9.80
2018-06-29T23:28:41.726Z,16.27
2018-06-29T23:31:10.628Z,11.17
2018-06-29T23:33:39.534Z,10.03
2018-06-29T23:36:08.449Z,10.80
2018-06-29T23:38:37.372Z,9.80
2018-06-29T23:41:06.336Z,12.57
2018-06-29T23:43:35.539Z,12.40
2018-06-29T23:46:04.573Z,11.23
2018-06-29T23:48:33.606Z,12.63
2018-06-29T23:51:02.542Z,13.93
2018-06-29T23:53:31.449Z,10.53
2018-06-29T23:56:00.568Z,8.90
2018-06-29T23:58:29.428Z,11.33
